Maersk Kinloss — WMKA — position and weather

sailwx.info

Track history (hours):
 
Tides and Currents Weather Stations Pressure Air Temp Water Temp Dewpoint Dewpoint Depression Visibility Wind Speed Wind Dir Waves Ship Positions

Maersk Kinloss

Owner: Maersk Line, Limited, NORFOLK, VA. More information available from US FCC via Universal Licensing System and Coast Guard Vessel Documentation Center.

Last reported at 2017-Dec-16 09:39 UTC. Time now 2017-Dec-16 15:11 UTC.
Position N 40°26' W 073°47'.

Length 300 m; draft 14.1 m.

Type: Ship (hazmat cat A). MMSI: 338241000.

Date/timePositionNaut miles runAvg speedWind from/ knotsBaromVisibWave heightAir tempDewpointWater temp
2017-Dec-16 09:39N 40°26' W 073°47'1 9.5
2017-Dec-16 09:30N 40°27' W 073°49'5 9.4
2017-Dec-16 08:58N 40°29' W 073°55'511.5
2017-Dec-16 08:30N 40°32' W 074°01'713.1
2017-Dec-16 08:00N 40°38' W 074°03'3 5.7
2017-Dec-16 07:30N 40°39' W 074°07'2 3.2
2017-Dec-16 07:00N 40°39' W 074°09'0 0.6
2017-Dec-16 06:29N 40°40' W 074°09'0 0.0
2017-Dec-16 05:59N 40°40' W 074°09'0 0.0
2017-Dec-16 05:26N 40°40' W 074°09'0 0.0
2017-Dec-16 04:56N 40°40' W 074°09'0 0.0
2017-Dec-16 04:26N 40°40' W 074°09'0 0.0
2017-Dec-16 03:59N 40°40' W 074°09'0 0.0
2017-Dec-16 03:29N 40°40' W 074°09'0 0.0
2017-Dec-16 02:56N 40°40' W 074°09'0 0.0
2017-Dec-16 02:29N 40°40' W 074°09'0 0.0
2017-Dec-16 01:59N 40°40' W 074°09'0 0.0
2017-Dec-16 01:29N 40°40' W 074°09'0 0.0
2017-Dec-16 00:59N 40°40' W 074°09'0 0.0
2017-Dec-16 00:26N 40°40' W 074°09'0 0.0
2017-Dec-15 23:59N 40°40' W 074°09'0 0.0
2017-Dec-15 23:29N 40°40' W 074°09'0 0.0
2017-Dec-15 22:59N 40°40' W 074°09'0 0.0
2017-Dec-15 22:29N 40°40' W 074°09'0 0.0
2017-Dec-15 21:59N 40°40' W 074°09'0 0.0
2017-Dec-15 21:29N 40°40' W 074°09'0 0.0
2017-Dec-15 20:59N 40°40' W 074°09'0 0.0
2017-Dec-15 20:29N 40°40' W 074°09'0 0.0
2017-Dec-15 19:56N 40°40' W 074°09'0 0.0
2017-Dec-15 19:26N 40°40' W 074°09'0 0.0
2017-Dec-15 18:56N 40°40' W 074°09'0 0.0
2017-Dec-15 18:26N 40°40' W 074°09'0 0.0
2017-Dec-15 17:59N 40°40' W 074°09'0 0.0
2017-Dec-15 17:29N 40°40' W 074°09'0 0.0
2017-Dec-15 16:53N 40°40' W 074°09'0 0.0
2017-Dec-15 16:23N 40°40' W 074°09'0 0.0
2017-Dec-15 15:53N 40°40' W 074°09'0 0.0
2017-Dec-15 15:29N 40°40' W 074°09'0 0.0
2017-Dec-15 14:56N 40°40' W 074°09'0 0.0
2017-Dec-15 14:29N 40°40' W 074°09'0 0.0
2017-Dec-15 13:56N 40°40' W 074°09'0 0.0
2017-Dec-15 13:29N 40°40' W 074°09'0 0.0
2017-Dec-15 12:59N 40°40' W 074°09'0 0.0
2017-Dec-15 12:29N 40°40' W 074°09'0 0.0
2017-Dec-15 11:56N 40°40' W 074°09'0 0.0
2017-Dec-15 11:26N 40°40' W 074°09'0 0.0
2017-Dec-15 10:59N 40°40' W 074°09'0 0.0
2017-Dec-15 10:29N 40°40' W 074°09'0 0.5
2017-Dec-15 10:00N 40°39' W 074°09'2 3.6
2017-Dec-15 09:30N 40°39' W 074°07'3 5.8
2017-Dec-15 09:00N 40°38' W 074°03'714.1
2017-Dec-15 08:30N 40°31' W 073°59'611.1
2017-Dec-15 08:00N 40°29' W 073°53'4 8.5
2017-Dec-15 07:30N 40°28' W 073°47'3 6.4
2017-Dec-15 07:00N 40°24' W 073°48'4 7.0
2017-Dec-15 06:30N 40°21' W 073°46'23110.5
2017-Dec-14 08:28N 36°51' W 075°50'4 9.1
2017-Dec-14 08:01N 36°53' W 075°54'5 9.1
2017-Dec-14 07:30N 36°56' W 075°58'510.7
2017-Dec-14 07:00N 36°58' W 076°05'815.4
2017-Dec-14 06:29N 37°00' W 076°14'612.3
2017-Dec-14 06:00N 36°57' W 076°20'4 8.5
2017-Dec-14 05:30N 36°53' W 076°20'1 1.5
2017-Dec-14 04:58N 36°52' W 076°21'0 0.0
2017-Dec-14 04:28N 36°52' W 076°21'0 0.0
2017-Dec-14 03:49N 36°52' W 076°21'0 0.0
2017-Dec-14 03:22N 36°52' W 076°21'0 0.0
2017-Dec-14 02:52N 36°52' W 076°21'0 0.0
2017-Dec-14 02:28N 36°52' W 076°21'0 0.0
2017-Dec-14 01:58N 36°52' W 076°21'0 0.0
2017-Dec-14 01:28N 36°52' W 076°21'0 0.0
2017-Dec-14 00:58N 36°52' W 076°21'0 0.0
2017-Dec-14 00:28N 36°52' W 076°21'0 0.0
2017-Dec-13 23:58N 36°52' W 076°21'0 0.0
2017-Dec-13 23:28N 36°52' W 076°21'0 0.0
2017-Dec-13 22:58N 36°52' W 076°21'0 0.0
2017-Dec-13 22:28N 36°52' W 076°21'0 0.0
2017-Dec-13 21:55N 36°52' W 076°21'0 0.0
2017-Dec-13 21:28N 36°52' W 076°21'0 0.0
2017-Dec-13 20:58N 36°52' W 076°21'0 0.0
2017-Dec-13 20:22N 36°52' W 076°21'0 0.0
2017-Dec-13 19:58N 36°52' W 076°21'0 0.0
2017-Dec-13 19:28N 36°52' W 076°21'0 0.0
2017-Dec-13 18:58N 36°52' W 076°21'0 0.0
2017-Dec-13 18:28N 36°52' W 076°21'0 0.0
2017-Dec-13 17:37N 36°52' W 076°21'0 0.0
2017-Dec-13 17:28N 36°52' W 076°21'0 0.0
2017-Dec-13 16:58N 36°52' W 076°21'0 0.0
2017-Dec-13 16:28N 36°52' W 076°21'0 0.0
2017-Dec-13 15:58N 36°52' W 076°21'0 0.0
2017-Dec-13 15:28N 36°52' W 076°21'0 0.0
2017-Dec-13 14:58N 36°52' W 076°21'0 0.0
2017-Dec-13 14:28N 36°52' W 076°21'0 0.0
2017-Dec-13 13:58N 36°52' W 076°21'0 0.0
2017-Dec-13 13:28N 36°52' W 076°21'0 0.0
2017-Dec-13 12:58N 36°52' W 076°21'0 0.0
2017-Dec-13 12:28N 36°52' W 076°21'0 0.0
2017-Dec-13 11:58N 36°52' W 076°21'0 0.0
2017-Dec-13 11:30N 36°52' W 076°21'1 1.3
2017-Dec-13 11:00N 36°53' W 076°20'3 6.5
2017-Dec-13 10:30N 36°56' W 076°20'510.3
2017-Dec-13 10:00N 37°00' W 076°17'815.8
2017-Dec-13 09:30N 36°59' W 076°07'713.5
2017-Dec-13 09:00N 36°56' W 075°59'4 7.8
2017-Dec-13 08:30N 36°55' W 075°55'4 7.2
2017-Dec-13 08:00N 36°52' W 075°52'5 8.7
2017-Dec-13 07:25N 36°50' W 075°46'62615.2
2017-Dec-11 14:15N 26°57' W 079°44'518.1
2017-Dec-11 13:59N 26°52' W 079°44'918.7
2017-Dec-11 13:30N 26°43' W 079°45'918.4
2017-Dec-11 13:00N 26°34' W 079°46'917.4
2017-Dec-11 12:30N 26°26' W 079°47'917.5
2017-Dec-11 12:00N 26°17' W 079°48'918.0
2017-Dec-11 11:30N 26°08' W 079°49'917.3
2017-Dec-11 11:00N 25°59' W 079°50'816.7
2017-Dec-11 10:30N 25°51' W 079°51'816.4
2017-Dec-11 10:00N 25°43' W 079°52'816.4
2017-Dec-11 09:31N 25°35' W 079°53'816.0
2017-Dec-11 09:01N 25°27' W 079°55'816.1
2017-Dec-11 08:30N 25°19' W 079°59'816.0
2017-Dec-11 08:00N 25°12' W 080°02'  
2017-Dec-09 00:09N 29°23' W 094°49'412.2
2017-Dec-08 23:50N 29°26' W 094°50'412.2
2017-Dec-08 23:30N 29°30' W 094°52'611.5
2017-Dec-08 23:00N 29°35' W 094°56'4 7.3
2017-Dec-08 22:30N 29°37' W 094°59'1 1.6
2017-Dec-08 21:59N 29°37' W 095°00'0 0.0
2017-Dec-08 21:29N 29°37' W 095°00'0 0.0
2017-Dec-08 20:59N 29°37' W 095°00'0 0.0
2017-Dec-08 20:29N 29°37' W 095°00'0 0.0
2017-Dec-08 19:59N 29°37' W 095°00'0 0.0
2017-Dec-08 19:29N 29°37' W 095°00'0 0.0
2017-Dec-08 18:59N 29°37' W 095°00'0 0.0
2017-Dec-08 18:29N 29°37' W 095°00'0 0.0
2017-Dec-08 17:59N 29°37' W 095°00'0 0.0
2017-Dec-08 17:29N 29°37' W 095°00'0 0.0
2017-Dec-08 16:53N 29°37' W 095°00'0 0.0
2017-Dec-08 16:29N 29°37' W 095°00'0 0.0
2017-Dec-08 15:59N 29°37' W 095°00'0 0.0
2017-Dec-08 15:29N 29°37' W 095°00'0 0.0
2017-Dec-08 14:59N 29°37' W 095°00'0 0.0
2017-Dec-08 14:29N 29°37' W 095°00'0 0.0
2017-Dec-08 13:59N 29°37' W 095°00'0 0.0
2017-Dec-08 13:29N 29°37' W 095°00'0 0.0
2017-Dec-08 12:59N 29°37' W 095°00'0 0.0
2017-Dec-08 12:29N 29°37' W 095°00'0 0.0
2017-Dec-08 11:56N 29°37' W 095°00'0 0.0
2017-Dec-08 11:29N 29°37' W 095°00'0 0.0
2017-Dec-08 10:53N 29°37' W 095°00'0 0.0
2017-Dec-08 10:29N 29°37' W 095°00'0 0.0
2017-Dec-08 09:59N 29°37' W 095°00'0 0.0
2017-Dec-08 09:29N 29°37' W 095°00'0 0.0
2017-Dec-08 08:59N 29°37' W 095°00'0 0.0
2017-Dec-08 08:29N 29°37' W 095°00'0 0.0
2017-Dec-08 07:59N 29°37' W 095°00'0 0.0
2017-Dec-08 07:29N 29°37' W 095°00'0 0.0
2017-Dec-08 06:59N 29°37' W 095°00'0 0.0
2017-Dec-08 06:29N 29°37' W 095°00'0 0.0
2017-Dec-08 05:59N 29°37' W 095°00'0 0.0
2017-Dec-08 05:26N 29°37' W 095°00'0 0.0
2017-Dec-08 04:59N 29°37' W 095°00'0 0.0
2017-Dec-08 04:29N 29°37' W 095°00'0 0.0
2017-Dec-08 03:59N 29°37' W 095°00'0 0.0
2017-Dec-08 03:29N 29°37' W 095°00'0 0.0
2017-Dec-08 02:59N 29°37' W 095°00'0 0.0
2017-Dec-08 02:29N 29°37' W 095°00'0 0.0
2017-Dec-08 01:59N 29°37' W 095°00'0 0.0
2017-Dec-08 01:29N 29°37' W 095°00'0 0.0
2017-Dec-08 00:59N 29°37' W 095°00'0 0.0
2017-Dec-08 00:29N 29°37' W 095°00'0 0.0
2017-Dec-07 23:59N 29°37' W 095°00'0 0.0
2017-Dec-07 23:29N 29°37' W 095°00'0 0.0
2017-Dec-07 22:59N 29°37' W 095°00'0 0.0
2017-Dec-07 22:29N 29°37' W 095°00'0 0.0
2017-Dec-07 21:59N 29°37' W 095°00'0 0.0
2017-Dec-07 21:29N 29°37' W 095°00'0 0.0
2017-Dec-07 20:59N 29°37' W 095°00'0 0.0
2017-Dec-07 20:29N 29°37' W 095°00'0 0.0
2017-Dec-07 19:59N 29°37' W 095°00'0 0.0
2017-Dec-07 19:29N 29°37' W 095°00'0 0.0
2017-Dec-07 18:59N 29°37' W 095°00'0 0.0
2017-Dec-07 18:29N 29°37' W 095°00'0 0.0
2017-Dec-07 17:59N 29°37' W 095°00'0 0.0
2017-Dec-07 17:29N 29°37' W 095°00'0 0.0
2017-Dec-07 16:59N 29°37' W 095°00'0 0.0
2017-Dec-07 16:29N 29°37' W 095°00'0 0.0
2017-Dec-07 15:59N 29°37' W 095°00'0 0.0
2017-Dec-07 15:29N 29°37' W 095°00'0 0.0
2017-Dec-07 14:59N 29°37' W 095°00'0 0.0
2017-Dec-07 14:29N 29°37' W 095°00'0 0.0
2017-Dec-07 13:59N 29°37' W 095°00'0 0.0
2017-Dec-07 13:29N 29°37' W 095°00'0 0.0
2017-Dec-07 12:59N 29°37' W 095°00'0 0.0
2017-Dec-07 12:29N 29°37' W 095°00'0 0.0
2017-Dec-07 11:59N 29°37' W 095°00'0 0.0
2017-Dec-07 11:29N 29°37' W 095°00'0 0.0
2017-Dec-07 10:59N 29°37' W 095°00'0 0.0
2017-Dec-07 10:29N 29°37' W 095°00'0 0.0
2017-Dec-07 09:59N 29°37' W 095°00'0 0.0
2017-Dec-07 09:29N 29°37' W 095°00'0 0.0
2017-Dec-07 08:59N 29°37' W 095°00'0 0.0
2017-Dec-07 08:29N 29°37' W 095°00'0 0.0
2017-Dec-07 07:59N 29°37' W 095°00'0 0.0
2017-Dec-07 07:29N 29°37' W 095°00'0 0.0
2017-Dec-07 06:59N 29°37' W 095°00'0 0.0
2017-Dec-07 06:29N 29°37' W 095°00'0 0.0
2017-Dec-07 05:59N 29°37' W 095°00'0 0.0
2017-Dec-07 05:26N 29°37' W 095°00'0 0.0
2017-Dec-07 04:59N 29°37' W 095°00'0 0.0
2017-Dec-07 04:20N 29°37' W 095°00'0 0.0
2017-Dec-07 03:59N 29°37' W 095°00'0 0.0
2017-Dec-07 03:29N 29°37' W 095°00'0 0.0
2017-Dec-07 02:59N 29°37' W 095°00'0 0.0
2017-Dec-07 02:29N 29°37' W 095°00'0 0.0
2017-Dec-07 01:59N 29°37' W 095°00'0 0.0
2017-Dec-07 01:29N 29°37' W 095°00'0 0.0
2017-Dec-07 00:59N 29°37' W 095°00'0 0.0
2017-Dec-07 00:29N 29°37' W 095°00'0 0.0
2017-Dec-06 23:59N 29°37' W 095°00'1 1.3
2017-Dec-06 23:30N 29°37' W 095°01'1 1.6
2017-Dec-06 23:00N 29°37' W 095°00'4 8.3
2017-Dec-06 22:30N 29°35' W 094°56'611.8
2017-Dec-06 22:00N 29°30' W 094°52'711.8
2017-Dec-06 21:26N 29°24' W 094°49'  
Track history (hours):
 
Tides and Currents Weather Stations Pressure Air Temp Water Temp Dewpoint Dewpoint Depression Visibility Wind Speed Wind Dir Waves Ship Positions

Maersk Kinloss

Owner: Maersk Line, Limited, NORFOLK, VA. More information available from US FCC via Universal Licensing System and Coast Guard Vessel Documentation Center.

Last reported at 2017-Dec-16 09:39 UTC. Time now 2017-Dec-16 15:11 UTC.
Position N 40°26' W 073°47'.

Length 300 m; draft 14.1 m.

Type: Ship (hazmat cat A). MMSI: 338241000.

Date/timePositionNaut miles runAvg speedWind from/ knotsBaromVisibWave heightAir tempDewpointWater temp
2017-Dec-16 09:39N 40°26' W 073°47'1 9.5
2017-Dec-16 09:30N 40°27' W 073°49'5 9.4
2017-Dec-16 08:58N 40°29' W 073°55'511.5
2017-Dec-16 08:30N 40°32' W 074°01'713.1
2017-Dec-16 08:00N 40°38' W 074°03'3 5.7
2017-Dec-16 07:30N 40°39' W 074°07'2 3.2
2017-Dec-16 07:00N 40°39' W 074°09'0 0.6
2017-Dec-16 06:29N 40°40' W 074°09'0 0.0
2017-Dec-16 05:59N 40°40' W 074°09'0 0.0
2017-Dec-16 05:26N 40°40' W 074°09'0 0.0
2017-Dec-16 04:56N 40°40' W 074°09'0 0.0
2017-Dec-16 04:26N 40°40' W 074°09'0 0.0
2017-Dec-16 03:59N 40°40' W 074°09'0 0.0
2017-Dec-16 03:29N 40°40' W 074°09'0 0.0
2017-Dec-16 02:56N 40°40' W 074°09'0 0.0
2017-Dec-16 02:29N 40°40' W 074°09'0 0.0
2017-Dec-16 01:59N 40°40' W 074°09'0 0.0
2017-Dec-16 01:29N 40°40' W 074°09'0 0.0
2017-Dec-16 00:59N 40°40' W 074°09'0 0.0
2017-Dec-16 00:26N 40°40' W 074°09'0 0.0
2017-Dec-15 23:59N 40°40' W 074°09'0 0.0
2017-Dec-15 23:29N 40°40' W 074°09'0 0.0
2017-Dec-15 22:59N 40°40' W 074°09'0 0.0
2017-Dec-15 22:29N 40°40' W 074°09'0 0.0
2017-Dec-15 21:59N 40°40' W 074°09'0 0.0
2017-Dec-15 21:29N 40°40' W 074°09'0 0.0
2017-Dec-15 20:59N 40°40' W 074°09'0 0.0
2017-Dec-15 20:29N 40°40' W 074°09'0 0.0
2017-Dec-15 19:56N 40°40' W 074°09'0 0.0
2017-Dec-15 19:26N 40°40' W 074°09'0 0.0
2017-Dec-15 18:56N 40°40' W 074°09'0 0.0
2017-Dec-15 18:26N 40°40' W 074°09'0 0.0
2017-Dec-15 17:59N 40°40' W 074°09'0 0.0
2017-Dec-15 17:29N 40°40' W 074°09'0 0.0
2017-Dec-15 16:53N 40°40' W 074°09'0 0.0
2017-Dec-15 16:23N 40°40' W 074°09'0 0.0
2017-Dec-15 15:53N 40°40' W 074°09'0 0.0
2017-Dec-15 15:29N 40°40' W 074°09'0 0.0
2017-Dec-15 14:56N 40°40' W 074°09'0 0.0
2017-Dec-15 14:29N 40°40' W 074°09'0 0.0
2017-Dec-15 13:56N 40°40' W 074°09'0 0.0
2017-Dec-15 13:29N 40°40' W 074°09'0 0.0
2017-Dec-15 12:59N 40°40' W 074°09'0 0.0
2017-Dec-15 12:29N 40°40' W 074°09'0 0.0
2017-Dec-15 11:56N 40°40' W 074°09'0 0.0
2017-Dec-15 11:26N 40°40' W 074°09'0 0.0
2017-Dec-15 10:59N 40°40' W 074°09'0 0.0
2017-Dec-15 10:29N 40°40' W 074°09'0 0.5
2017-Dec-15 10:00N 40°39' W 074°09'2 3.6
2017-Dec-15 09:30N 40°39' W 074°07'3 5.8
2017-Dec-15 09:00N 40°38' W 074°03'714.1
2017-Dec-15 08:30N 40°31' W 073°59'611.1
2017-Dec-15 08:00N 40°29' W 073°53'4 8.5
2017-Dec-15 07:30N 40°28' W 073°47'3 6.4
2017-Dec-15 07:00N 40°24' W 073°48'4 7.0
2017-Dec-15 06:30N 40°21' W 073°46'23110.5
2017-Dec-14 08:28N 36°51' W 075°50'4 9.1
2017-Dec-14 08:01N 36°53' W 075°54'5 9.1
2017-Dec-14 07:30N 36°56' W 075°58'510.7
2017-Dec-14 07:00N 36°58' W 076°05'815.4
2017-Dec-14 06:29N 37°00' W 076°14'612.3
2017-Dec-14 06:00N 36°57' W 076°20'4 8.5
2017-Dec-14 05:30N 36°53' W 076°20'1 1.5
2017-Dec-14 04:58N 36°52' W 076°21'0 0.0
2017-Dec-14 04:28N 36°52' W 076°21'0 0.0
2017-Dec-14 03:49N 36°52' W 076°21'0 0.0
2017-Dec-14 03:22N 36°52' W 076°21'0 0.0
2017-Dec-14 02:52N 36°52' W 076°21'0 0.0
2017-Dec-14 02:28N 36°52' W 076°21'0 0.0
2017-Dec-14 01:58N 36°52' W 076°21'0 0.0
2017-Dec-14 01:28N 36°52' W 076°21'0 0.0
2017-Dec-14 00:58N 36°52' W 076°21'0 0.0
2017-Dec-14 00:28N 36°52' W 076°21'0 0.0
2017-Dec-13 23:58N 36°52' W 076°21'0 0.0
2017-Dec-13 23:28N 36°52' W 076°21'0 0.0
2017-Dec-13 22:58N 36°52' W 076°21'0 0.0
2017-Dec-13 22:28N 36°52' W 076°21'0 0.0
2017-Dec-13 21:55N 36°52' W 076°21'0 0.0
2017-Dec-13 21:28N 36°52' W 076°21'0 0.0
2017-Dec-13 20:58N 36°52' W 076°21'0 0.0
2017-Dec-13 20:22N 36°52' W 076°21'0 0.0
2017-Dec-13 19:58N 36°52' W 076°21'0 0.0
2017-Dec-13 19:28N 36°52' W 076°21'0 0.0
2017-Dec-13 18:58N 36°52' W 076°21'0 0.0
2017-Dec-13 18:28N 36°52' W 076°21'0 0.0
2017-Dec-13 17:37N 36°52' W 076°21'0 0.0
2017-Dec-13 17:28N 36°52' W 076°21'0 0.0
2017-Dec-13 16:58N 36°52' W 076°21'0 0.0
2017-Dec-13 16:28N 36°52' W 076°21'0 0.0
2017-Dec-13 15:58N 36°52' W 076°21'0 0.0
2017-Dec-13 15:28N 36°52' W 076°21'0 0.0
2017-Dec-13 14:58N 36°52' W 076°21'0 0.0
2017-Dec-13 14:28N 36°52' W 076°21'0 0.0
2017-Dec-13 13:58N 36°52' W 076°21'0 0.0
2017-Dec-13 13:28N 36°52' W 076°21'0 0.0
2017-Dec-13 12:58N 36°52' W 076°21'0 0.0
2017-Dec-13 12:28N 36°52' W 076°21'0 0.0
2017-Dec-13 11:58N 36°52' W 076°21'0 0.0
2017-Dec-13 11:30N 36°52' W 076°21'1 1.3
2017-Dec-13 11:00N 36°53' W 076°20'3 6.5
2017-Dec-13 10:30N 36°56' W 076°20'510.3
2017-Dec-13 10:00N 37°00' W 076°17'815.8
2017-Dec-13 09:30N 36°59' W 076°07'713.5
2017-Dec-13 09:00N 36°56' W 075°59'4 7.8
2017-Dec-13 08:30N 36°55' W 075°55'4 7.2
2017-Dec-13 08:00N 36°52' W 075°52'5 8.7
2017-Dec-13 07:25N 36°50' W 075°46'62615.2
2017-Dec-11 14:15N 26°57' W 079°44'518.1
2017-Dec-11 13:59N 26°52' W 079°44'918.7
2017-Dec-11 13:30N 26°43' W 079°45'918.4
2017-Dec-11 13:00N 26°34' W 079°46'917.4
2017-Dec-11 12:30N 26°26' W 079°47'917.5
2017-Dec-11 12:00N 26°17' W 079°48'918.0
2017-Dec-11 11:30N 26°08' W 079°49'917.3
2017-Dec-11 11:00N 25°59' W 079°50'816.7
2017-Dec-11 10:30N 25°51' W 079°51'816.4
2017-Dec-11 10:00N 25°43' W 079°52'816.4
2017-Dec-11 09:31N 25°35' W 079°53'816.0
2017-Dec-11 09:01N 25°27' W 079°55'816.1
2017-Dec-11 08:30N 25°19' W 079°59'816.0
2017-Dec-11 08:00N 25°12' W 080°02'  
2017-Dec-09 00:09N 29°23' W 094°49'412.2
2017-Dec-08 23:50N 29°26' W 094°50'412.2
2017-Dec-08 23:30N 29°30' W 094°52'611.5
2017-Dec-08 23:00N 29°35' W 094°56'4 7.3
2017-Dec-08 22:30N 29°37' W 094°59'1 1.6
2017-Dec-08 21:59N 29°37' W 095°00'0 0.0
2017-Dec-08 21:29N 29°37' W 095°00'0 0.0
2017-Dec-08 20:59N 29°37' W 095°00'0 0.0
2017-Dec-08 20:29N 29°37' W 095°00'0 0.0
2017-Dec-08 19:59N 29°37' W 095°00'0 0.0
2017-Dec-08 19:29N 29°37' W 095°00'0 0.0
2017-Dec-08 18:59N 29°37' W 095°00'0 0.0
2017-Dec-08 18:29N 29°37' W 095°00'0 0.0
2017-Dec-08 17:59N 29°37' W 095°00'0 0.0
2017-Dec-08 17:29N 29°37' W 095°00'0 0.0
2017-Dec-08 16:53N 29°37' W 095°00'0 0.0
2017-Dec-08 16:29N 29°37' W 095°00'0 0.0
2017-Dec-08 15:59N 29°37' W 095°00'0 0.0
2017-Dec-08 15:29N 29°37' W 095°00'0 0.0
2017-Dec-08 14:59N 29°37' W 095°00'0 0.0
2017-Dec-08 14:29N 29°37' W 095°00'0 0.0
2017-Dec-08 13:59N 29°37' W 095°00'0 0.0
2017-Dec-08 13:29N 29°37' W 095°00'0 0.0
2017-Dec-08 12:59N 29°37' W 095°00'0 0.0
2017-Dec-08 12:29N 29°37' W 095°00'0 0.0
2017-Dec-08 11:56N 29°37' W 095°00'0 0.0
2017-Dec-08 11:29N 29°37' W 095°00'0 0.0
2017-Dec-08 10:53N 29°37' W 095°00'0 0.0
2017-Dec-08 10:29N 29°37' W 095°00'0 0.0
2017-Dec-08 09:59N 29°37' W 095°00'0 0.0
2017-Dec-08 09:29N 29°37' W 095°00'0 0.0
2017-Dec-08 08:59N 29°37' W 095°00'0 0.0
2017-Dec-08 08:29N 29°37' W 095°00'0 0.0
2017-Dec-08 07:59N 29°37' W 095°00'0 0.0
2017-Dec-08 07:29N 29°37' W 095°00'0 0.0
2017-Dec-08 06:59N 29°37' W 095°00'0 0.0
2017-Dec-08 06:29N 29°37' W 095°00'0 0.0
2017-Dec-08 05:59N 29°37' W 095°00'0 0.0
2017-Dec-08 05:26N 29°37' W 095°00'0 0.0
2017-Dec-08 04:59N 29°37' W 095°00'0 0.0
2017-Dec-08 04:29N 29°37' W 095°00'0 0.0
2017-Dec-08 03:59N 29°37' W 095°00'0 0.0
2017-Dec-08 03:29N 29°37' W 095°00'0 0.0
2017-Dec-08 02:59N 29°37' W 095°00'0 0.0
2017-Dec-08 02:29N 29°37' W 095°00'0 0.0
2017-Dec-08 01:59N 29°37' W 095°00'0 0.0
2017-Dec-08 01:29N 29°37' W 095°00'0 0.0
2017-Dec-08 00:59N 29°37' W 095°00'0 0.0
2017-Dec-08 00:29N 29°37' W 095°00'0 0.0
2017-Dec-07 23:59N 29°37' W 095°00'0 0.0
2017-Dec-07 23:29N 29°37' W 095°00'0 0.0
2017-Dec-07 22:59N 29°37' W 095°00'0 0.0
2017-Dec-07 22:29N 29°37' W 095°00'0 0.0
2017-Dec-07 21:59N 29°37' W 095°00'0 0.0
2017-Dec-07 21:29N 29°37' W 095°00'0 0.0
2017-Dec-07 20:59N 29°37' W 095°00'0 0.0
2017-Dec-07 20:29N 29°37' W 095°00'0 0.0
2017-Dec-07 19:59N 29°37' W 095°00'0 0.0
2017-Dec-07 19:29N 29°37' W 095°00'0 0.0
2017-Dec-07 18:59N 29°37' W 095°00'0 0.0
2017-Dec-07 18:29N 29°37' W 095°00'0 0.0
2017-Dec-07 17:59N 29°37' W 095°00'0 0.0
2017-Dec-07 17:29N 29°37' W 095°00'0 0.0
2017-Dec-07 16:59N 29°37' W 095°00'0 0.0
2017-Dec-07 16:29N 29°37' W 095°00'0 0.0
2017-Dec-07 15:59N 29°37' W 095°00'0 0.0
2017-Dec-07 15:29N 29°37' W 095°00'0 0.0
2017-Dec-07 14:59N 29°37' W 095°00'0 0.0
2017-Dec-07 14:29N 29°37' W 095°00'0 0.0
2017-Dec-07 13:59N 29°37' W 095°00'0 0.0
2017-Dec-07 13:29N 29°37' W 095°00'0 0.0
2017-Dec-07 12:59N 29°37' W 095°00'0 0.0
2017-Dec-07 12:29N 29°37' W 095°00'0 0.0
2017-Dec-07 11:59N 29°37' W 095°00'0 0.0
2017-Dec-07 11:29N 29°37' W 095°00'0 0.0
2017-Dec-07 10:59N 29°37' W 095°00'0 0.0
2017-Dec-07 10:29N 29°37' W 095°00'0 0.0
2017-Dec-07 09:59N 29°37' W 095°00'0 0.0
2017-Dec-07 09:29N 29°37' W 095°00'0 0.0
2017-Dec-07 08:59N 29°37' W 095°00'0 0.0
2017-Dec-07 08:29N 29°37' W 095°00'0 0.0
2017-Dec-07 07:59N 29°37' W 095°00'0 0.0
2017-Dec-07 07:29N 29°37' W 095°00'0 0.0
2017-Dec-07 06:59N 29°37' W 095°00'0 0.0
2017-Dec-07 06:29N 29°37' W 095°00'0 0.0
2017-Dec-07 05:59N 29°37' W 095°00'0 0.0
2017-Dec-07 05:26N 29°37' W 095°00'0 0.0
2017-Dec-07 04:59N 29°37' W 095°00'0 0.0
2017-Dec-07 04:20N 29°37' W 095°00'0 0.0
2017-Dec-07 03:59N 29°37' W 095°00'0 0.0
2017-Dec-07 03:29N 29°37' W 095°00'0 0.0
2017-Dec-07 02:59N 29°37' W 095°00'0 0.0
2017-Dec-07 02:29N 29°37' W 095°00'0 0.0
2017-Dec-07 01:59N 29°37' W 095°00'0 0.0
2017-Dec-07 01:29N 29°37' W 095°00'0 0.0
2017-Dec-07 00:59N 29°37' W 095°00'0 0.0
2017-Dec-07 00:29N 29°37' W 095°00'0 0.0
2017-Dec-06 23:59N 29°37' W 095°00'1 1.3
2017-Dec-06 23:30N 29°37' W 095°01'1 1.6
2017-Dec-06 23:00N 29°37' W 095°00'4 8.3
2017-Dec-06 22:30N 29°35' W 094°56'611.8
2017-Dec-06 22:00N 29°30' W 094°52'711.8
2017-Dec-06 21:26N 29°24' W 094°49'  

Dump ship's entire track history